Time;durP1;ratioP1;P1;durP2;ratioP2;P2;SDS_P1;SDS_P2;PMS_P1;PMS_P2;Temp;Humidity;BMP_temperature;BMP_pressure;BME280_temperature;BME280_humidity;BME280_pressure;Samples;Min_cycle;Max_cycle;Signal;HPM_P1;HPM_P2
2022/05/02 00:00:07;;;;;;;52.80;40.85;;;;;;;;;;5001940;28;20280;-64
2022/05/02 00:02:33;;;;;;;40.28;30.23;;;;;;;;;;5002542;28;20851;-64
2022/05/02 00:04:58;;;;;;;40.65;27.75;;;;;;;;;;5000087;28;20413;-64
2022/05/02 00:07:24;;;;;;;38.13;27.35;;;;;;;;;;5001958;28;21707;-64
2022/05/02 00:09:49;;;;;;;41.17;28.65;;;;;;;;;;5001869;28;20984;-64
2022/05/02 00:12:14;;;;;;;36.13;27.65;;;;;;;;;;5001766;28;20661;-64
2022/05/02 00:14:39;;;;;;;39.60;27.90;;;;;;;;;;5002463;28;20469;-64
2022/05/02 00:17:05;;;;;;;46.08;35.08;;;;;;;;;;5001199;28;20056;-64
2022/05/02 00:19:30;;;;;;;53.83;36.50;;;;;;;;;;5001883;28;20087;-64
2022/05/02 00:21:55;;;;;;;52.13;35.72;;;;;;;;;;4996245;28;20313;-64
2022/05/02 00:24:21;;;;;;;51.58;35.72;;;;;;;;;;5006939;28;20043;-64
2022/05/02 00:26:46;;;;;;;47.35;33.13;;;;;;;;;;5004348;28;20071;-64
2022/05/02 00:29:12;;;;;;;42.17;29.02;;;;;;;;;;5008081;28;20086;-64
2022/05/02 00:31:40;;;;;;;38.92;28.70;;;;;;;;;;5007793;28;22171;-64
2022/05/02 00:34:05;;;;;;;39.58;29.30;;;;;;;;;;5007421;28;20021;-64
2022/05/02 00:36:31;;;;;;;44.20;30.08;;;;;;;;;;5008205;28;20744;-63
2022/05/02 00:38:56;;;;;;;40.40;29.15;;;;;;;;;;5007053;28;20067;-64
2022/05/02 00:41:22;;;;;;;38.05;27.48;;;;;;;;;;5003313;28;20320;-63
2022/05/02 00:43:47;;;;;;;35.90;26.27;;;;;;;;;;5007631;28;20029;-64
2022/05/02 00:46:19;;;;;;;38.22;27.00;;;;;;;;;;5006257;28;20042;-63
2022/05/02 00:48:48;;;;;;;36.55;25.42;;;;;;;;;;5007285;28;20170;-63
2022/05/02 00:51:17;;;;;;;37.05;26.25;;;;;;;;;;5004139;28;20380;-66
2022/05/02 00:53:43;;;;;;;33.45;23.58;;;;;;;;;;5006686;28;20417;-63
2022/05/02 00:56:09;;;;;;;32.55;23.52;;;;;;;;;;5004204;28;20029;-63
2022/05/02 00:58:35;;;;;;;33.13;22.90;;;;;;;;;;5008668;28;20041;-63
2022/05/02 01:01:03;;;;;;;27.25;20.15;;;;;;;;;;5005976;28;20033;-64
2022/05/02 01:03:29;;;;;;;28.52;20.08;;;;;;;;;;5006441;28;20033;-63
2022/05/02 01:08:38;;;;;;;27.25;18.17;;;;;;;;;;5004410;28;20067;-64
2022/05/02 01:11:03;;;;;;;26.58;17.83;;;;;;;;;;5004743;28;20600;-64
2022/05/02 01:13:43;;;;;;;25.98;17.88;;;;;;;;;;5006693;28;20041;-65
2022/05/02 01:16:10;;;;;;;24.35;17.98;;;;;;;;;;5006648;28;20113;-64
2022/05/02 01:18:36;;;;;;;27.23;18.42;;;;;;;;;;5007094;28;20068;-63
2022/05/02 01:21:05;;;;;;;28.75;19.73;;;;;;;;;;5006652;28;20579;-64
2022/05/02 01:23:31;;;;;;;25.08;18.67;;;;;;;;;;5007089;28;20486;-64
2022/05/02 01:25:56;;;;;;;29.38;20.25;;;;;;;;;;5007899;28;20482;-64
2022/05/02 01:28:21;;;;;;;29.65;20.63;;;;;;;;;;5007149;28;20742;-63
2022/05/02 01:30:47;;;;;;;27.20;20.27;;;;;;;;;;5004220;28;20127;-63
2022/05/02 01:33:12;;;;;;;27.27;19.98;;;;;;;;;;5002106;28;20148;-63
2022/05/02 01:35:37;;;;;;;26.27;19.88;;;;;;;;;;5003869;28;20037;-64
2022/05/02 01:38:05;;;;;;;34.90;23.58;;;;;;;;;;5003924;28;20045;-64
2022/05/02 01:40:30;;;;;;;29.85;22.45;;;;;;;;;;5004764;28;20680;-63
2022/05/02 01:42:55;;;;;;;36.20;20.27;;;;;;;;;;5004881;28;20013;-63
2022/05/02 01:45:21;;;;;;;27.02;17.38;;;;;;;;;;5004914;28;20115;-64
2022/05/02 01:47:46;;;;;;;26.23;17.45;;;;;;;;;;5008874;28;20441;-64
2022/05/02 01:50:11;;;;;;;25.88;16.38;;;;;;;;;;5008519;28;20497;-64
2022/05/02 01:52:37;;;;;;;24.05;16.08;;;;;;;;;;5006883;28;20037;-63
2022/05/02 01:55:02;;;;;;;25.15;15.90;;;;;;;;;;5005473;28;20029;-66
2022/05/02 01:57:28;;;;;;;24.90;15.82;;;;;;;;;;5004898;28;22220;-63
2022/05/02 01:59:53;;;;;;;24.45;15.20;;;;;;;;;;5005602;28;20071;-64
2022/05/02 02:02:18;;;;;;;22.13;15.60;;;;;;;;;;5005907;28;20109;-63
2022/05/02 02:07:30;;;;;;;22.70;15.63;;;;;;;;;;5009418;28;20029;-63
2022/05/02 02:09:57;;;;;;;23.50;15.38;;;;;;;;;;5008997;28;20224;-64
2022/05/02 02:12:23;;;;;;;23.67;15.82;;;;;;;;;;5008789;28;20021;-63
2022/05/02 02:14:48;;;;;;;24.08;14.88;;;;;;;;;;5004978;28;20276;-63
2022/05/02 02:17:16;;;;;;;24.48;14.48;;;;;;;;;;5007517;28;20680;-63
2022/05/02 02:19:41;;;;;;;18.30;13.13;;;;;;;;;;5007490;28;20029;-63
2022/05/02 02:22:19;;;;;;;19.23;13.68;;;;;;;;;;5007267;28;20428;-65
2022/05/02 02:24:46;;;;;;;19.73;14.20;;;;;;;;;;5008158;28;20226;-64
2022/05/02 02:27:11;;;;;;;19.55;14.15;;;;;;;;;;5007912;28;20334;-63
2022/05/02 02:29:36;;;;;;;16.63;12.63;;;;;;;;;;5004295;28;20109;-63
2022/05/02 02:32:02;;;;;;;19.83;13.43;;;;;;;;;;5008417;28;20501;-63
2022/05/02 02:34:27;;;;;;;18.20;12.82;;;;;;;;;;5008697;28;20029;-63
2022/05/02 02:36:52;;;;;;;17.42;13.48;;;;;;;;;;5004681;28;20037;-63
2022/05/02 02:39:17;;;;;;;20.23;12.38;;;;;;;;;;5006942;28;20256;-64
2022/05/02 02:41:45;;;;;;;20.15;12.80;;;;;;;;;;5005871;28;20037;-66
2022/05/02 02:44:13;;;;;;;21.23;14.63;;;;;;;;;;5004570;28;20103;-64
2022/05/02 02:46:38;;;;;;;24.10;17.17;;;;;;;;;;4993896;28;20345;-65
2022/05/02 02:49:06;;;;;;;28.98;18.42;;;;;;;;;;5008686;28;20574;-63
2022/05/02 02:51:31;;;;;;;26.45;19.95;;;;;;;;;;5006778;28;20109;-64
2022/05/02 02:53:56;;;;;;;25.38;19.25;;;;;;;;;;5008579;28;20032;-64
2022/05/02 02:56:24;;;;;;;28.90;20.05;;;;;;;;;;4993368;28;20274;-65
2022/05/02 02:58:50;;;;;;;27.17;19.05;;;;;;;;;;5007761;28;20176;-64
2022/05/02 03:01:15;;;;;;;30.48;22.05;;;;;;;;;;5008633;28;20347;-64
2022/05/02 03:03:42;;;;;;;30.65;21.35;;;;;;;;;;5008035;28;20185;-66
2022/05/02 03:06:08;;;;;;;27.95;20.73;;;;;;;;;;5008106;28;20040;-64
2022/05/02 03:08:34;;;;;;;29.05;20.30;;;;;;;;;;4994123;28;20033;-63
2022/05/02 03:11:00;;;;;;;28.67;19.90;;;;;;;;;;5007130;28;20205;-63
2022/05/02 03:13:26;;;;;;;28.25;19.92;;;;;;;;;;5009589;28;20033;-67
2022/05/02 03:15:54;;;;;;;28.55;20.20;;;;;;;;;;5010350;28;20419;-63
2022/05/02 03:18:19;;;;;;;27.63;20.60;;;;;;;;;;5005184;28;20143;-65
2022/05/02 03:20:45;;;;;;;26.88;19.38;;;;;;;;;;5007540;28;20029;-65
2022/05/02 03:23:10;;;;;;;28.38;19.20;;;;;;;;;;5007124;28;20140;-64
2022/05/02 03:25:35;;;;;;;27.45;18.90;;;;;;;;;;5007124;28;20112;-63
2022/05/02 03:28:01;;;;;;;28.33;18.85;;;;;;;;;;5006905;28;20348;-64
2022/05/02 03:30:26;;;;;;;27.83;18.90;;;;;;;;;;5007449;28;20446;-64
2022/05/02 03:32:51;;;;;;;30.90;20.27;;;;;;;;;;4993523;28;20860;-65
2022/05/02 03:35:16;;;;;;;29.25;19.95;;;;;;;;;;5022891;28;21753;-64
2022/05/02 03:37:44;;;;;;;28.80;20.15;;;;;;;;;;5006228;28;20352;-64
2022/05/02 03:40:09;;;;;;;31.33;20.50;;;;;;;;;;5007765;28;20045;-63
2022/05/02 03:42:36;;;;;;;32.58;22.52;;;;;;;;;;5008413;28;20108;-63
2022/05/02 03:45:01;;;;;;;31.08;21.48;;;;;;;;;;5008629;28;20056;-63
2022/05/02 03:47:27;;;;;;;31.05;21.63;;;;;;;;;;4990932;28;20365;-63
2022/05/02 03:49:52;;;;;;;36.00;21.83;;;;;;;;;;5009508;28;20575;-63
2022/05/02 03:52:20;;;;;;;31.08;20.50;;;;;;;;;;5010616;28;20056;-63
2022/05/02 03:54:45;;;;;;;31.75;21.42;;;;;;;;;;5008908;28;20039;-64
2022/05/02 03:57:13;;;;;;;30.98;21.05;;;;;;;;;;5011164;28;20059;-64
2022/05/02 03:59:38;;;;;;;32.33;21.20;;;;;;;;;;5007734;28;20252;-64
2022/05/02 04:02:06;;;;;;;36.33;22.15;;;;;;;;;;5010558;28;20029;-64
2022/05/02 04:04:34;;;;;;;33.63;21.27;;;;;;;;;;5010641;28;20055;-63
2022/05/02 04:06:59;;;;;;;31.63;20.55;;;;;;;;;;5010840;28;20021;-64
2022/05/02 04:09:24;;;;;;;30.80;19.50;;;;;;;;;;5010910;28;20158;-64
2022/05/02 04:11:52;;;;;;;30.70;19.25;;;;;;;;;;5011320;28;20545;-63
2022/05/02 04:14:17;;;;;;;30.00;18.88;;;;;;;;;;5010335;28;20025;-63
2022/05/02 04:16:42;;;;;;;31.30;19.35;;;;;;;;;;5006829;28;20082;-64
2022/05/02 04:19:08;;;;;;;32.13;19.60;;;;;;;;;;5011841;28;20155;-64
2022/05/02 04:21:36;;;;;;;28.95;19.02;;;;;;;;;;5011852;28;20263;-64
2022/05/02 04:24:02;;;;;;;30.38;19.77;;;;;;;;;;5012616;28;20120;-63
2022/05/02 04:26:27;;;;;;;30.60;20.25;;;;;;;;;;5010099;28;20535;-63
2022/05/02 04:28:53;;;;;;;30.20;18.27;;;;;;;;;;5012174;28;20399;-64
2022/05/02 04:31:23;;;;;;;31.58;19.27;;;;;;;;;;5011149;28;20036;-63
2022/05/02 04:33:48;;;;;;;28.92;19.67;;;;;;;;;;5010906;28;20268;-63
2022/05/02 04:36:14;;;;;;;30.52;18.50;;;;;;;;;;5007678;28;20040;-64
2022/05/02 04:38:42;;;;;;;28.20;19.15;;;;;;;;;;5010914;28;20560;-64
2022/05/02 04:41:07;;;;;;;28.25;18.05;;;;;;;;;;5007186;28;20044;-65
2022/05/02 04:43:33;;;;;;;26.15;18.27;;;;;;;;;;5008266;28;20024;-65
2022/05/02 04:45:59;;;;;;;27.48;18.13;;;;;;;;;;5007947;28;20112;-64
2022/05/02 04:48:27;;;;;;;27.52;19.15;;;;;;;;;;5006316;28;20057;-65
2022/05/02 04:50:54;;;;;;;27.45;17.27;;;;;;;;;;5005611;28;20036;-63
2022/05/02 04:53:22;;;;;;;25.08;17.33;;;;;;;;;;5007024;28;20491;-64
2022/05/02 04:55:48;;;;;;;26.90;18.60;;;;;;;;;;5009162;28;20056;-63
2022/05/02 04:58:14;;;;;;;27.80;17.60;;;;;;;;;;5003720;28;20041;-63
2022/05/02 05:00:39;;;;;;;25.05;17.35;;;;;;;;;;5005787;28;20052;-63
2022/05/02 05:03:05;;;;;;;25.92;17.45;;;;;;;;;;5005674;28;20091;-63
2022/05/02 05:05:30;;;;;;;28.00;17.55;;;;;;;;;;5006332;28;20115;-63
2022/05/02 05:07:56;;;;;;;23.40;17.98;;;;;;;;;;5005363;28;20533;-64
2022/05/02 05:10:23;;;;;;;24.70;17.83;;;;;;;;;;5004393;28;20585;-64
2022/05/02 05:13:03;;;;;;;24.42;17.42;;;;;;;;;;5006471;28;20368;-64
2022/05/02 05:18:44;;;;;;;24.42;17.65;;;;;;;;;;5006014;28;20045;-64
2022/05/02 05:21:22;;;;;;;23.35;16.63;;;;;;;;;;5000508;28;20091;-64
2022/05/02 05:23:48;;;;;;;24.55;17.25;;;;;;;;;;5004696;28;20139;-64
2022/05/02 05:26:15;;;;;;;24.35;16.55;;;;;;;;;;5001596;28;20139;-65
2022/05/02 05:29:04;;;;;;;23.67;16.25;;;;;;;;;;5002953;28;20025;-64
2022/05/02 05:31:37;;;;;;;22.83;16.08;;;;;;;;;;5003417;28;20201;-64
2022/05/02 05:34:15;;;;;;;22.73;15.75;;;;;;;;;;5003475;28;20129;-66
2022/05/02 05:37:01;;;;;;;21.75;15.63;;;;;;;;;;5003459;28;20175;-64
2022/05/02 05:39:34;;;;;;;24.10;15.68;;;;;;;;;;5007220;28;20091;-63
2022/05/02 05:42:16;;;;;;;20.67;14.73;;;;;;;;;;5007573;28;20037;-65
2022/05/02 05:44:42;;;;;;;;;;;;;;;;;;5007735;28;20029;-65
2022/05/02 05:47:14;;;;;;;19.23;15.00;;;;;;;;;;5006284;28;19996;-65
2022/05/02 05:49:39;;;;;;;;;;;;;;;;;;5006317;28;20078;-64
2022/05/02 05:52:12;;;;;;;21.83;15.10;;;;;;;;;;5007200;28;20359;-63
2022/05/02 05:54:43;;;;;;;20.85;15.10;;;;;;;;;;5008029;28;20067;-64
2022/05/02 05:57:27;;;;;;;20.08;15.32;;;;;;;;;;5006553;28;20028;-67
2022/05/02 06:00:07;;;;;;;18.63;14.93;;;;;;;;;;5008010;28;20496;-67
2022/05/02 06:02:34;;;;;;;23.27;15.50;;;;;;;;;;5022854;28;20025;-64
2022/05/02 06:05:00;;;;;;;21.42;15.07;;;;;;;;;;5007337;28;20166;-63
2022/05/02 06:07:27;;;;;;;19.85;14.77;;;;;;;;;;5006733;28;20486;-64
2022/05/02 06:09:52;;;;;;;19.63;14.77;;;;;;;;;;5005411;28;20059;-64
2022/05/02 06:12:19;;;;;;;19.98;14.73;;;;;;;;;;5004615;28;20537;-66
2022/05/02 06:20:16;;;;;;;17.23;13.18;;;;;;;;;;5005870;28;20534;-64
2022/05/02 06:22:42;;;;;;;20.63;13.57;;;;;;;;;;5007227;28;20029;-64
2022/05/02 06:25:07;;;;;;;15.38;12.63;;;;;;;;;;5006012;28;20306;-65
2022/05/02 06:27:33;;;;;;;17.70;13.38;;;;;;;;;;5006253;28;20055;-63
2022/05/02 06:30:03;;;;;;;16.92;11.75;;;;;;;;;;5004677;28;20108;-63
2022/05/02 06:32:32;;;;;;;14.40;11.50;;;;;;;;;;5004981;28;20093;-64
2022/05/02 06:34:57;;;;;;;12.93;10.65;;;;;;;;;;5004388;28;20619;-63
2022/05/02 06:37:31;;;;;;;12.43;10.68;;;;;;;;;;5003018;28;20312;-64
2022/05/02 06:39:56;;;;;;;12.50;10.15;;;;;;;;;;5004567;28;20045;-64
2022/05/02 06:42:36;;;;;;;12.50;9.95;;;;;;;;;;5003847;28;20033;-64
2022/05/02 06:45:20;;;;;;;14.57;10.05;;;;;;;;;;5005136;28;20669;-64
2022/05/02 06:47:51;;;;;;;12.52;10.40;;;;;;;;;;5004279;28;20328;-63
2022/05/02 06:50:18;;;;;;;11.85;10.10;;;;;;;;;;5002222;28;20199;-64
2022/05/02 06:53:03;;;;;;;13.25;10.48;;;;;;;;;;5004184;28;20304;-63
2022/05/02 06:55:39;;;;;;;11.63;9.90;;;;;;;;;;5005491;28;20128;-63
2022/05/02 06:58:17;;;;;;;13.23;9.73;;;;;;;;;;5003706;28;20626;-63
2022/05/02 07:00:47;;;;;;;11.63;9.75;;;;;;;;;;5003755;28;20032;-62
2022/05/02 07:03:25;;;;;;;13.40;9.82;;;;;;;;;;5003352;28;20778;-62
2022/05/02 07:06:00;;;;;;;14.95;9.82;;;;;;;;;;5002773;28;20420;-62
2022/05/02 07:08:29;;;;;;;10.40;9.00;;;;;;;;;;5003864;28;20040;-63
2022/05/02 07:11:17;;;;;;;11.73;9.38;;;;;;;;;;5003914;28;20048;-62
2022/05/02 07:13:51;;;;;;;13.13;9.52;;;;;;;;;;5003295;28;20383;-62
2022/05/02 07:16:23;;;;;;;10.27;8.40;;;;;;;;;;5003153;28;20032;-63
2022/05/02 07:18:55;;;;;;;10.93;8.50;;;;;;;;;;5002700;28;20040;-62
2022/05/02 07:21:40;;;;;;;10.02;8.38;;;;;;;;;;5003066;28;20054;-62
2022/05/02 07:24:05;;;;;;;9.18;8.02;;;;;;;;;;5002592;28;20310;-62
2022/05/02 07:26:31;;;;;;;10.20;8.02;;;;;;;;;;5003831;28;20561;-63
2022/05/02 07:29:00;;;;;;;8.80;7.90;;;;;;;;;;5002473;28;20160;-62
2022/05/02 07:31:25;;;;;;;9.20;8.07;;;;;;;;;;5002994;28;20148;-62
2022/05/02 07:33:51;;;;;;;8.23;7.38;;;;;;;;;;5017377;28;20492;-62
2022/05/02 07:36:18;;;;;;;10.30;7.40;;;;;;;;;;5001442;28;20041;-62
2022/05/02 07:38:50;;;;;;;10.80;7.20;;;;;;;;;;5001125;28;20053;-62
2022/05/02 07:41:23;;;;;;;9.65;7.25;;;;;;;;;;5001836;28;20144;-63
2022/05/02 07:43:49;;;;;;;9.18;6.95;;;;;;;;;;5000722;28;20456;-62
2022/05/02 07:46:18;;;;;;;8.43;6.55;;;;;;;;;;5002233;28;20070;-63
2022/05/02 07:48:44;;;;;;;9.52;6.75;;;;;;;;;;5002780;28;20029;-63
2022/05/02 07:51:11;;;;;;;7.38;6.32;;;;;;;;;;5001799;28;20025;-62
2022/05/02 07:53:42;;;;;;;8.50;7.13;;;;;;;;;;5017537;28;20036;-62
2022/05/02 07:56:08;;;;;;;9.32;6.25;;;;;;;;;;5001846;28;20245;-63
2022/05/02 07:58:34;;;;;;;7.43;6.47;;;;;;;;;;5002254;28;20147;-62
2022/05/02 08:01:00;;;;;;;7.18;5.63;;;;;;;;;;5002214;28;20246;-61
2022/05/02 08:03:27;;;;;;;7.40;5.90;;;;;;;;;;5002583;28;20504;-62
2022/05/02 08:05:57;;;;;;;7.80;5.70;;;;;;;;;;5000756;28;20099;-62
2022/05/02 08:08:39;;;;;;;7.30;4.80;;;;;;;;;;5002814;28;21814;-63
2022/05/02 08:11:11;;;;;;;8.07;5.60;;;;;;;;;;5000629;28;20363;-64
2022/05/02 08:13:43;;;;;;;8.77;5.22;;;;;;;;;;5002665;28;20464;-62
2022/05/02 08:16:22;;;;;;;7.00;5.18;;;;;;;;;;4999826;28;20136;-64
2022/05/02 08:19:09;;;;;;;7.43;5.40;;;;;;;;;;4999701;28;20029;-63
2022/05/02 08:21:41;;;;;;;6.82;5.25;;;;;;;;;;5002021;28;20025;-64
2022/05/02 08:27:21;;;;;;;6.32;5.13;;;;;;;;;;5000566;28;20029;-62
2022/05/02 08:30:05;;;;;;;7.93;5.55;;;;;;;;;;5001227;28;20038;-63
2022/05/02 08:32:40;;;;;;;6.78;5.30;;;;;;;;;;5002208;28;20033;-62
2022/05/02 08:35:05;;;;;;;6.05;3.85;;;;;;;;;;5001450;28;20621;-62
2022/05/02 08:37:49;;;;;;;6.35;4.97;;;;;;;;;;5001781;28;20075;-62
2022/05/02 08:40:24;;;;;;;6.18;5.00;;;;;;;;;;5001326;28;20044;-65
2022/05/02 08:43:02;;;;;;;5.60;4.38;;;;;;;;;;5002488;28;20225;-68
2022/05/02 08:45:55;;;;;;;6.13;5.25;;;;;;;;;;4983212;28;20144;-65
2022/05/02 08:48:39;;;;;;;8.45;6.72;;;;;;;;;;5017069;28;20848;-65
2022/05/02 08:51:11;;;;;;;7.82;6.30;;;;;;;;;;5001672;28;20331;-66
2022/05/02 08:53:55;;;;;;;8.60;6.85;;;;;;;;;;5002693;28;20029;-65
2022/05/02 08:56:35;;;;;;;9.27;7.53;;;;;;;;;;4999676;28;20041;-66
2022/05/02 08:59:12;;;;;;;8.63;7.40;;;;;;;;;;5002142;28;20028;-65
2022/05/02 09:01:46;;;;;;;8.02;7.22;;;;;;;;;;5001686;28;20051;-66
2022/05/02 09:04:17;;;;;;;10.10;7.68;;;;;;;;;;5001836;28;20812;-65
2022/05/02 09:07:01;;;;;;;10.05;7.07;;;;;;;;;;5001546;28;20174;-65
2022/05/02 09:09:33;;;;;;;9.15;7.63;;;;;;;;;;5002186;28;20029;-65
2022/05/02 09:11:58;;;;;;;10.95;7.00;;;;;;;;;;5001449;28;21824;-65
2022/05/02 09:14:23;;;;;;;7.60;6.40;;;;;;;;;;5005388;28;20033;-66
2022/05/02 09:17:08;;;;;;;8.77;6.50;;;;;;;;;;5006133;28;20041;-66
2022/05/02 09:19:48;;;;;;;9.82;6.93;;;;;;;;;;4987362;28;20404;-65
2022/05/02 09:22:16;;;;;;;9.68;7.55;;;;;;;;;;5003859;28;20302;-66
2022/05/02 09:24:44;;;;;;;9.15;7.38;;;;;;;;;;5005465;28;20036;-66
2022/05/02 09:27:34;;;;;;;9.73;6.70;;;;;;;;;;5005400;28;20023;-65
2022/05/02 09:30:17;;;;;;;7.75;6.72;;;;;;;;;;5004723;28;20028;-66
2022/05/02 09:32:48;;;;;;;8.02;6.90;;;;;;;;;;5004069;28;20176;-65
2022/05/02 09:35:17;;;;;;;8.80;7.70;;;;;;;;;;5004467;28;20143;-65
2022/05/02 09:37:56;;;;;;;12.65;8.32;;;;;;;;;;5005567;28;20380;-67
2022/05/02 09:40:29;;;;;;;11.15;8.35;;;;;;;;;;5008801;28;21878;-65
2022/05/02 09:43:14;;;;;;;10.32;8.30;;;;;;;;;;5006896;28;20024;-65
2022/05/02 09:51:46;;;;;;;11.32;8.73;;;;;;;;;;5005004;28;20025;-65
2022/05/02 09:57:22;;;;;;;9.93;8.85;;;;;;;;;;5004681;28;20033;-67
2022/05/02 09:59:49;;;;;;;10.52;9.43;;;;;;;;;;5003194;28;20034;-65
2022/05/02 10:02:21;;;;;;;12.05;9.80;;;;;;;;;;5002987;28;20021;-66
2022/05/02 10:05:06;;;;;;;13.85;9.40;;;;;;;;;;5004636;28;20257;-67
2022/05/02 10:07:35;;;;;;;10.02;8.43;;;;;;;;;;5004679;28;20775;-66
2022/05/02 10:10:07;;;;;;;10.02;8.68;;;;;;;;;;5003943;28;20119;-66
2022/05/02 10:12:47;;;;;;;11.10;8.25;;;;;;;;;;5002862;28;20013;-65
2022/05/02 10:15:13;;;;;;;13.52;8.75;;;;;;;;;;5005656;28;20029;-66
2022/05/02 10:17:48;;;;;;;11.82;8.65;;;;;;;;;;5004837;28;20111;-68
2022/05/02 10:20:15;;;;;;;11.95;7.65;;;;;;;;;;5004491;28;20476;-66
2022/05/02 10:22:58;;;;;;;9.48;7.70;;;;;;;;;;5002085;28;20582;-65
2022/05/02 10:25:26;;;;;;;12.95;8.90;;;;;;;;;;5003584;28;20021;-65
2022/05/02 10:27:54;;;;;;;11.80;8.23;;;;;;;;;;5004835;28;20498;-65
2022/05/02 10:30:20;;;;;;;9.98;7.82;;;;;;;;;;5004700;28;20040;-65
2022/05/02 10:32:53;;;;;;;9.13;7.55;;;;;;;;;;5004888;28;20565;-68
2022/05/02 10:35:19;;;;;;;10.00;7.18;;;;;;;;;;5001701;28;20609;-66
2022/05/02 10:37:53;;;;;;;9.18;6.70;;;;;;;;;;5004483;28;20032;-67
2022/05/02 10:40:23;;;;;;;11.00;7.10;;;;;;;;;;5003708;28;20493;-66
2022/05/02 10:42:51;;;;;;;9.73;7.05;;;;;;;;;;5003931;28;20218;-66
2022/05/02 10:45:16;;;;;;;10.20;7.22;;;;;;;;;;5003373;28;20600;-67
2022/05/02 10:47:50;;;;;;;9.85;7.32;;;;;;;;;;5003893;28;20049;-65
2022/05/02 10:50:20;;;;;;;10.93;7.05;;;;;;;;;;5003712;28;20063;-66
2022/05/02 10:52:45;;;;;;;9.45;6.78;;;;;;;;;;5002302;28;20025;-66
2022/05/02 10:55:18;;;;;;;9.38;6.95;;;;;;;;;;5001063;28;20040;-66
2022/05/02 10:57:50;;;;;;;8.18;6.35;;;;;;;;;;5004224;28;20033;-65
2022/05/02 11:00:19;;;;;;;9.35;5.90;;;;;;;;;;5004030;28;20514;-66
2022/05/02 11:02:57;;;;;;;9.10;6.40;;;;;;;;;;5002072;28;20039;-66
2022/05/02 11:05:27;;;;;;;8.13;6.03;;;;;;;;;;5003611;28;20560;-65
2022/05/02 11:08:13;;;;;;;10.15;6.38;;;;;;;;;;5002699;28;20071;-65
2022/05/02 11:10:43;;;;;;;9.30;6.40;;;;;;;;;;5003993;28;20032;-65
2022/05/02 11:13:31;;;;;;;11.27;6.85;;;;;;;;;;5003787;28;20131;-66
2022/05/02 11:16:15;;;;;;;9.10;6.00;;;;;;;;;;5001437;28;20338;-65
2022/05/02 11:21:29;;;;;;;7.82;5.22;;;;;;;;;;5003355;28;20224;-65
2022/05/02 11:24:16;;;;;;;8.27;5.43;;;;;;;;;;5003241;28;20025;-65
2022/05/02 11:26:43;;;;;;;6.90;5.03;;;;;;;;;;5003576;28;20445;-65
2022/05/02 11:29:12;;;;;;;5.70;4.63;;;;;;;;;;5001747;28;20587;-66
2022/05/02 11:31:37;;;;;;;7.35;5.10;;;;;;;;;;5003707;28;20098;-65
2022/05/02 11:34:03;;;;;;;6.53;4.93;;;;;;;;;;5003181;28;20029;-66
2022/05/02 11:36:31;;;;;;;9.07;4.60;;;;;;;;;;5002793;28;20399;-66
2022/05/02 11:39:08;;;;;;;7.57;4.35;;;;;;;;;;5002814;28;20569;-66
2022/05/02 11:41:42;;;;;;;6.30;4.03;;;;;;;;;;5002906;28;20301;-67
2022/05/02 11:44:09;;;;;;;8.52;3.90;;;;;;;;;;5002663;28;20933;-65
2022/05/02 11:46:54;;;;;;;6.85;4.20;;;;;;;;;;5003096;28;20025;-66
2022/05/02 11:49:25;;;;;;;6.95;4.68;;;;;;;;;;5002990;28;20307;-66
2022/05/02 11:51:51;;;;;;;7.15;4.32;;;;;;;;;;5003117;28;20037;-66
2022/05/02 11:54:36;;;;;;;8.52;4.55;;;;;;;;;;5002539;28;20280;-67
2022/05/02 11:57:10;;;;;;;6.82;4.97;;;;;;;;;;5002838;28;20059;-65
2022/05/02 11:59:56;;;;;;;6.55;4.50;;;;;;;;;;5003268;28;20059;-66
2022/05/02 12:02:35;;;;;;;8.00;5.18;;;;;;;;;;5001696;28;20590;-67
2022/05/02 12:05:05;;;;;;;10.55;5.30;;;;;;;;;;5002488;28;20025;-66
2022/05/02 12:07:32;;;;;;;8.18;5.10;;;;;;;;;;5001835;28;20021;-66
2022/05/02 12:10:05;;;;;;;7.93;5.00;;;;;;;;;;5006305;28;20081;-66
2022/05/02 12:12:31;;;;;;;13.95;5.35;;;;;;;;;;5002028;28;20033;-65
2022/05/02 12:15:04;;;;;;;12.80;5.18;;;;;;;;;;5003189;28;20547;-66
2022/05/02 12:17:29;;;;;;;12.20;5.47;;;;;;;;;;5002723;28;20115;-65
2022/05/02 12:19:55;;;;;;;7.55;4.97;;;;;;;;;;4999889;28;20657;-66
2022/05/02 12:22:24;;;;;;;9.57;5.05;;;;;;;;;;5002194;28;20474;-66
2022/05/02 12:24:51;;;;;;;8.32;4.60;;;;;;;;;;5001804;28;20033;-65
2022/05/02 12:27:18;;;;;;;12.82;5.13;;;;;;;;;;5000045;28;20409;-66
2022/05/02 12:29:43;;;;;;;11.70;5.50;;;;;;;;;;5002190;28;20620;-65
2022/05/02 12:32:11;;;;;;;12.30;5.97;;;;;;;;;;5002276;28;20033;-65
2022/05/02 12:34:37;;;;;;;8.15;5.35;;;;;;;;;;5001675;28;20060;-66
2022/05/02 12:37:23;;;;;;;9.80;5.72;;;;;;;;;;5002024;28;20020;-65
2022/05/02 12:39:49;;;;;;;10.05;5.32;;;;;;;;;;5000218;28;20727;-66
2022/05/02 12:42:19;;;;;;;11.18;5.47;;;;;;;;;;5002032;28;20523;-66
2022/05/02 12:44:57;;;;;;;10.40;5.45;;;;;;;;;;5001603;28;20024;-67
2022/05/02 12:47:23;;;;;;;12.95;6.03;;;;;;;;;;5002162;28;20025;-67
2022/05/02 12:50:11;;;;;;;11.65;6.03;;;;;;;;;;5000360;28;20152;-66
2022/05/02 12:52:42;;;;;;;12.13;5.63;;;;;;;;;;5010979;28;20420;-67
2022/05/02 12:55:08;;;;;;;10.68;6.10;;;;;;;;;;5001778;28;20014;-66
2022/05/02 13:00:31;;;;;;;10.93;5.80;;;;;;;;;;5001040;28;20196;-65
2022/05/02 13:03:02;;;;;;;12.80;6.70;;;;;;;;;;4999603;28;20040;-65
2022/05/02 13:05:29;;;;;;;18.58;6.43;;;;;;;;;;4999146;28;20029;-65
2022/05/02 13:07:55;;;;;;;15.68;6.80;;;;;;;;;;5002175;28;20261;-64
2022/05/02 13:10:25;;;;;;;10.55;6.70;;;;;;;;;;5001299;28;20029;-65
2022/05/02 13:13:06;;;;;;;16.15;7.13;;;;;;;;;;5001177;28;20363;-67
2022/05/02 13:15:31;;;;;;;14.32;6.30;;;;;;;;;;5001734;28;20588;-66
2022/05/02 13:18:07;;;;;;;13.85;6.35;;;;;;;;;;5000040;28;20060;-66
2022/05/02 13:20:33;;;;;;;14.73;5.28;;;;;;;;;;5016108;28;20029;-65
2022/05/02 13:23:08;;;;;;;12.75;5.80;;;;;;;;;;5016464;28;20036;-65
2022/05/02 13:25:52;;;;;;;11.27;5.68;;;;;;;;;;5000960;28;20026;-66
2022/05/02 13:28:29;;;;;;;8.98;4.97;;;;;;;;;;5002019;28;20154;-66
2022/05/02 13:31:07;;;;;;;14.65;5.15;;;;;;;;;;5001619;28;20032;-65
2022/05/02 13:33:34;;;;;;;15.20;5.07;;;;;;;;;;4999054;28;20434;-66
2022/05/02 13:36:07;;;;;;;15.10;5.68;;;;;;;;;;4983009;28;21904;-66
2022/05/02 13:39:00;;;;;;;13.63;5.65;;;;;;;;;;4999438;28;20052;-65
2022/05/02 13:41:33;;;;;;;7.38;4.20;;;;;;;;;;5001106;28;20300;-65
2022/05/02 13:44:07;;;;;;;11.65;4.50;;;;;;;;;;5001665;28;20542;-65
2022/05/02 13:47:01;;;;;;;7.70;3.85;;;;;;;;;;5001770;28;20751;-67
2022/05/02 13:49:33;;;;;;;8.57;4.28;;;;;;;;;;4991885;28;20033;-66
2022/05/02 13:52:03;;;;;;;13.13;4.22;;;;;;;;;;5000027;28;21149;-65
2022/05/02 13:54:33;;;;;;;15.35;4.10;;;;;;;;;;5000625;28;20573;-65
2022/05/02 13:57:05;;;;;;;7.07;3.93;;;;;;;;;;5001516;28;20044;-66
2022/05/02 13:59:36;;;;;;;12.43;4.18;;;;;;;;;;5017235;28;20037;-66
2022/05/02 14:02:05;;;;;;;16.17;4.53;;;;;;;;;;5003535;28;20595;-65
2022/05/02 14:07:17;;;;;;;15.15;4.53;;;;;;;;;;5004524;28;20461;-67
2022/05/02 14:09:45;;;;;;;10.02;4.00;;;;;;;;;;5004601;28;20203;-66
2022/05/02 14:12:28;;;;;;;16.45;4.07;;;;;;;;;;5008125;28;20245;-65
2022/05/02 14:15:04;;;;;;;19.17;4.97;;;;;;;;;;5003680;28;20037;-65
2022/05/02 14:17:38;;;;;;;16.05;4.60;;;;;;;;;;5004403;28;20036;-64
2022/05/02 14:20:13;;;;;;;16.20;4.90;;;;;;;;;;5004196;28;20033;-67
2022/05/02 14:22:40;;;;;;;21.27;4.75;;;;;;;;;;5004261;28;20029;-65
2022/05/02 14:25:06;;;;;;;14.45;4.20;;;;;;;;;;5005063;28;20033;-66
2022/05/02 14:27:32;;;;;;;19.00;4.82;;;;;;;;;;5004545;28;20391;-67
2022/05/02 14:30:01;;;;;;;17.15;4.05;;;;;;;;;;5004182;28;20534;-67
2022/05/02 14:32:38;;;;;;;19.05;4.30;;;;;;;;;;5002076;28;20575;-65
2022/05/02 14:35:04;;;;;;;17.63;3.65;;;;;;;;;;5007381;28;20160;-66
2022/05/02 14:37:29;;;;;;;15.10;4.13;;;;;;;;;;5004166;28;20132;-67
2022/05/02 14:39:55;;;;;;;23.73;4.60;;;;;;;;;;5003915;28;20041;-65
2022/05/02 14:42:20;;;;;;;13.88;4.43;;;;;;;;;;5001658;28;20029;-66
2022/05/02 14:44:48;;;;;;;14.95;4.07;;;;;;;;;;5003718;28;20374;-66
2022/05/02 14:47:16;;;;;;;17.85;4.55;;;;;;;;;;5003848;28;20282;-67
2022/05/02 14:49:44;;;;;;;21.13;4.90;;;;;;;;;;5002855;28;20529;-66
2022/05/02 14:52:18;;;;;;;17.52;4.40;;;;;;;;;;5004118;28;20338;-67
2022/05/02 14:54:45;;;;;;;12.52;4.07;;;;;;;;;;5004020;28;20127;-67
2022/05/02 14:57:12;;;;;;;14.27;3.83;;;;;;;;;;5003839;28;20040;-66
2022/05/02 14:59:39;;;;;;;12.07;4.93;;;;;;;;;;5003342;28;20021;-67
2022/05/02 15:02:05;;;;;;;14.77;4.40;;;;;;;;;;5004052;28;20044;-63
2022/05/02 15:04:34;;;;;;;16.38;4.35;;;;;;;;;;5003583;28;20029;-62
2022/05/02 15:07:00;;;;;;;10.20;3.63;;;;;;;;;;5003871;28;20036;-62
2022/05/02 15:12:36;;;;;;;12.30;3.90;;;;;;;;;;5003122;28;20029;-62
2022/05/02 15:15:20;;;;;;;12.13;3.78;;;;;;;;;;5003198;28;20588;-63
2022/05/02 15:17:56;;;;;;;8.32;3.80;;;;;;;;;;5003834;28;20810;-63
2022/05/02 15:20:29;;;;;;;9.55;3.70;;;;;;;;;;5003098;28;20022;-63
2022/05/02 15:22:57;;;;;;;7.63;3.50;;;;;;;;;;5002823;28;20406;-62